sensor_id;sensor_type;location;lat;lon;timestamp;P1;durP1;ratioP1;P2;durP2;ratioP2
12469;SDS011;36499;46.484;13.832;2022-11-04T00:00:15;14.50;;;10.90;;
12469;SDS011;36499;46.484;13.832;2022-11-04T00:02:42;12.77;;;10.47;;
12469;SDS011;36499;46.484;13.832;2022-11-04T00:05:09;13.53;;;10.63;;
12469;SDS011;36499;46.484;13.832;2022-11-04T00:07:36;14.13;;;9.93;;
12469;SDS011;36499;46.484;13.832;2022-11-04T00:10:22;12.67;;;9.53;;
12469;SDS011;36499;46.484;13.832;2022-11-04T00:13:10;12.53;;;10.40;;
12469;SDS011;36499;46.484;13.832;2022-11-04T00:15:36;13.90;;;10.23;;
12469;SDS011;36499;46.484;13.832;2022-11-04T00:18:21;12.50;;;10.27;;
12469;SDS011;36499;46.484;13.832;2022-11-04T00:20:48;11.27;;;9.70;;
12469;SDS011;36499;46.484;13.832;2022-11-04T00:23:32;11.50;;;9.43;;
12469;SDS011;36499;46.484;13.832;2022-11-04T00:26:18;11.07;;;9.47;;
12469;SDS011;36499;46.484;13.832;2022-11-04T00:29:03;13.70;;;9.37;;
12469;SDS011;36499;46.484;13.832;2022-11-04T00:31:30;13.03;;;10.57;;
12469;SDS011;36499;46.484;13.832;2022-11-04T00:34:15;16.10;;;9.93;;
12469;SDS011;36499;46.484;13.832;2022-11-04T00:36:42;11.83;;;9.37;;
12469;SDS011;36499;46.484;13.832;2022-11-04T00:39:09;9.67;;;8.63;;
12469;SDS011;36499;46.484;13.832;2022-11-04T00:41:37;11.77;;;9.47;;
12469;SDS011;36499;46.484;13.832;2022-11-04T00:44:04;18.77;;;14.40;;
12469;SDS011;36499;46.484;13.832;2022-11-04T00:46:32;10.17;;;7.90;;
12469;SDS011;36499;46.484;13.832;2022-11-04T00:48:59;10.40;;;8.03;;
12469;SDS011;36499;46.484;13.832;2022-11-04T00:51:27;9.47;;;7.93;;
12469;SDS011;36499;46.484;13.832;2022-11-04T00:53:54;7.93;;;6.93;;
12469;SDS011;36499;46.484;13.832;2022-11-04T00:56:22;7.90;;;7.10;;
12469;SDS011;36499;46.484;13.832;2022-11-04T00:58:51;8.03;;;7.23;;
12469;SDS011;36499;46.484;13.832;2022-11-04T01:01:18;7.43;;;6.53;;
12469;SDS011;36499;46.484;13.832;2022-11-04T01:03:46;7.60;;;6.30;;
12469;SDS011;36499;46.484;13.832;2022-11-04T01:06:15;11.30;;;6.37;;
12469;SDS011;36499;46.484;13.832;2022-11-04T01:08:43;7.00;;;6.30;;
12469;SDS011;36499;46.484;13.832;2022-11-04T01:11:11;7.33;;;6.27;;
12469;SDS011;36499;46.484;13.832;2022-11-04T01:13:39;7.73;;;6.53;;
12469;SDS011;36499;46.484;13.832;2022-11-04T01:16:09;6.87;;;6.17;;
12469;SDS011;36499;46.484;13.832;2022-11-04T01:18:38;6.93;;;5.77;;
12469;SDS011;36499;46.484;13.832;2022-11-04T01:21:06;7.40;;;5.37;;
12469;SDS011;36499;46.484;13.832;2022-11-04T01:23:37;6.43;;;5.77;;
12469;SDS011;36499;46.484;13.832;2022-11-04T01:26:05;5.73;;;5.07;;
12469;SDS011;36499;46.484;13.832;2022-11-04T01:28:34;6.47;;;5.33;;
12469;SDS011;36499;46.484;13.832;2022-11-04T01:31:04;6.67;;;5.60;;
12469;SDS011;36499;46.484;13.832;2022-11-04T01:33:33;6.40;;;5.30;;
12469;SDS011;36499;46.484;13.832;2022-11-04T01:36:00;6.97;;;5.10;;
12469;SDS011;36499;46.484;13.832;2022-11-04T01:38:28;6.17;;;5.43;;
12469;SDS011;36499;46.484;13.832;2022-11-04T01:40:55;6.63;;;5.00;;
12469;SDS011;36499;46.484;13.832;2022-11-04T01:43:40;6.73;;;5.47;;
12469;SDS011;36499;46.484;13.832;2022-11-04T01:46:10;5.50;;;4.43;;
12469;SDS011;36499;46.484;13.832;2022-11-04T01:48:50;6.17;;;4.30;;
12469;SDS011;36499;46.484;13.832;2022-11-04T01:51:20;4.63;;;4.23;;
12469;SDS011;36499;46.484;13.832;2022-11-04T01:53:48;5.00;;;4.50;;
12469;SDS011;36499;46.484;13.832;2022-11-04T01:56:20;5.00;;;4.47;;
12469;SDS011;36499;46.484;13.832;2022-11-04T01:58:49;4.93;;;4.30;;
12469;SDS011;36499;46.484;13.832;2022-11-04T02:01:20;5.17;;;4.27;;
12469;SDS011;36499;46.484;13.832;2022-11-04T02:03:48;4.27;;;3.80;;
12469;SDS011;36499;46.484;13.832;2022-11-04T02:06:21;5.93;;;4.90;;
12469;SDS011;36499;46.484;13.832;2022-11-04T02:08:48;5.50;;;4.93;;
12469;SDS011;36499;46.484;13.832;2022-11-04T02:11:15;4.73;;;4.20;;
12469;SDS011;36499;46.484;13.832;2022-11-04T02:13:57;3.67;;;3.37;;
12469;SDS011;36499;46.484;13.832;2022-11-04T02:16:27;3.70;;;3.33;;
12469;SDS011;36499;46.484;13.832;2022-11-04T02:19:08;4.53;;;4.13;;
12469;SDS011;36499;46.484;13.832;2022-11-04T02:22:15;5.70;;;4.20;;
12469;SDS011;36499;46.484;13.832;2022-11-04T02:25:08;5.80;;;4.87;;
12469;SDS011;36499;46.484;13.832;2022-11-04T02:28:40;4.13;;;3.83;;
12469;SDS011;36499;46.484;13.832;2022-11-04T02:31:40;4.87;;;4.40;;
12469;SDS011;36499;46.484;13.832;2022-11-04T02:34:20;5.10;;;4.60;;
12469;SDS011;36499;46.484;13.832;2022-11-04T02:37:05;5.53;;;4.70;;
12469;SDS011;36499;46.484;13.832;2022-11-04T02:39:47;4.97;;;4.47;;
12469;SDS011;36499;46.484;13.832;2022-11-04T02:42:25;6.07;;;4.70;;
12469;SDS011;36499;46.484;13.832;2022-11-04T02:45:08;4.83;;;4.33;;
12469;SDS011;36499;46.484;13.832;2022-11-04T02:47:44;6.03;;;4.13;;
12469;SDS011;36499;46.484;13.832;2022-11-04T02:50:19;4.87;;;4.37;;
12469;SDS011;36499;46.484;13.832;2022-11-04T02:52:55;4.30;;;3.90;;
12469;SDS011;36499;46.484;13.832;2022-11-04T02:55:31;5.43;;;4.47;;
12469;SDS011;36499;46.484;13.832;2022-11-04T02:58:05;4.27;;;3.90;;
12469;SDS011;36499;46.484;13.832;2022-11-04T03:00:40;5.00;;;4.50;;
12469;SDS011;36499;46.484;13.832;2022-11-04T03:03:10;6.03;;;4.37;;
12469;SDS011;36499;46.484;13.832;2022-11-04T03:05:43;4.10;;;3.70;;
12469;SDS011;36499;46.484;13.832;2022-11-04T03:08:16;3.97;;;3.60;;
12469;SDS011;36499;46.484;13.832;2022-11-04T03:10:51;4.20;;;3.80;;
12469;SDS011;36499;46.484;13.832;2022-11-04T03:13:27;4.37;;;3.50;;
12469;SDS011;36499;46.484;13.832;2022-11-04T03:16:04;5.10;;;3.50;;
12469;SDS011;36499;46.484;13.832;2022-11-04T03:18:40;4.03;;;3.13;;
12469;SDS011;36499;46.484;13.832;2022-11-04T03:21:23;3.00;;;2.70;;
12469;SDS011;36499;46.484;13.832;2022-11-04T03:23:53;4.73;;;2.93;;
12469;SDS011;36499;46.484;13.832;2022-11-04T03:26:23;3.43;;;3.07;;
12469;SDS011;36499;46.484;13.832;2022-11-04T03:28:59;3.10;;;2.90;;
12469;SDS011;36499;46.484;13.832;2022-11-04T03:31:46;3.30;;;3.03;;
12469;SDS011;36499;46.484;13.832;2022-11-04T03:34:27;3.33;;;3.03;;
12469;SDS011;36499;46.484;13.832;2022-11-04T03:36:55;6.93;;;3.20;;
12469;SDS011;36499;46.484;13.832;2022-11-04T03:39:22;3.53;;;3.20;;
12469;SDS011;36499;46.484;13.832;2022-11-04T03:41:51;3.23;;;2.93;;
12469;SDS011;36499;46.484;13.832;2022-11-04T03:44:22;3.40;;;3.10;;
12469;SDS011;36499;46.484;13.832;2022-11-04T03:46:51;3.27;;;2.80;;
12469;SDS011;36499;46.484;13.832;2022-11-04T03:49:19;3.07;;;2.77;;
12469;SDS011;36499;46.484;13.832;2022-11-04T03:51:48;2.77;;;2.57;;
12469;SDS011;36499;46.484;13.832;2022-11-04T03:54:16;2.60;;;2.10;;
12469;SDS011;36499;46.484;13.832;2022-11-04T03:56:54;3.53;;;2.63;;
12469;SDS011;36499;46.484;13.832;2022-11-04T03:59:43;2.57;;;2.37;;
12469;SDS011;36499;46.484;13.832;2022-11-04T04:02:32;2.43;;;2.23;;
12469;SDS011;36499;46.484;13.832;2022-11-04T04:05:13;2.57;;;2.20;;
12469;SDS011;36499;46.484;13.832;2022-11-04T04:07:48;2.97;;;2.30;;
12469;SDS011;36499;46.484;13.832;2022-11-04T04:10:26;2.30;;;2.10;;
12469;SDS011;36499;46.484;13.832;2022-11-04T04:13:16;2.90;;;2.33;;
12469;SDS011;36499;46.484;13.832;2022-11-04T04:15:55;2.00;;;1.90;;
12469;SDS011;36499;46.484;13.832;2022-11-04T04:18:33;2.17;;;1.97;;
12469;SDS011;36499;46.484;13.832;2022-11-04T04:21:08;2.17;;;1.97;;
12469;SDS011;36499;46.484;13.832;2022-11-04T04:23:41;2.07;;;1.83;;
12469;SDS011;36499;46.484;13.832;2022-11-04T04:26:31;3.77;;;1.90;;
12469;SDS011;36499;46.484;13.832;2022-11-04T04:29:20;2.10;;;1.90;;
12469;SDS011;36499;46.484;13.832;2022-11-04T04:31:51;3.00;;;2.00;;
12469;SDS011;36499;46.484;13.832;2022-11-04T04:34:24;3.23;;;1.40;;
12469;SDS011;36499;46.484;13.832;2022-11-04T04:36:59;1.33;;;1.23;;
12469;SDS011;36499;46.484;13.832;2022-11-04T04:39:31;1.67;;;1.43;;
12469;SDS011;36499;46.484;13.832;2022-11-04T04:42:22;1.70;;;1.60;;
12469;SDS011;36499;46.484;13.832;2022-11-04T04:45:08;3.63;;;1.47;;
12469;SDS011;36499;46.484;13.832;2022-11-04T04:47:45;2.00;;;1.70;;
12469;SDS011;36499;46.484;13.832;2022-11-04T04:50:15;2.10;;;1.50;;
12469;SDS011;36499;46.484;13.832;2022-11-04T04:52:45;1.97;;;1.50;;
12469;SDS011;36499;46.484;13.832;2022-11-04T04:55:16;2.37;;;1.40;;
12469;SDS011;36499;46.484;13.832;2022-11-04T04:57:43;3.40;;;1.53;;
12469;SDS011;36499;46.484;13.832;2022-11-04T05:00:12;4.30;;;2.10;;
12469;SDS011;36499;46.484;13.832;2022-11-04T05:02:42;1.70;;;1.40;;
12469;SDS011;36499;46.484;13.832;2022-11-04T05:05:10;5.90;;;3.00;;
12469;SDS011;36499;46.484;13.832;2022-11-04T05:07:39;2.33;;;1.50;;
12469;SDS011;36499;46.484;13.832;2022-11-04T05:10:08;4.93;;;1.93;;
12469;SDS011;36499;46.484;13.832;2022-11-04T05:12:38;2.30;;;1.73;;
12469;SDS011;36499;46.484;13.832;2022-11-04T05:15:24;2.07;;;1.60;;
12469;SDS011;36499;46.484;13.832;2022-11-04T05:17:52;1.33;;;1.17;;
12469;SDS011;36499;46.484;13.832;2022-11-04T05:20:20;2.80;;;1.20;;
12469;SDS011;36499;46.484;13.832;2022-11-04T05:22:49;3.07;;;1.80;;
12469;SDS011;36499;46.484;13.832;2022-11-04T05:25:16;4.53;;;2.70;;
12469;SDS011;36499;46.484;13.832;2022-11-04T05:27:43;1.70;;;1.50;;
12469;SDS011;36499;46.484;13.832;2022-11-04T05:30:10;1.70;;;1.60;;
12469;SDS011;36499;46.484;13.832;2022-11-04T05:32:38;4.00;;;1.27;;
12469;SDS011;36499;46.484;13.832;2022-11-04T05:35:05;2.27;;;1.40;;
12469;SDS011;36499;46.484;13.832;2022-11-04T05:37:32;1.50;;;1.40;;
12469;SDS011;36499;46.484;13.832;2022-11-04T05:40:01;2.00;;;1.80;;
12469;SDS011;36499;46.484;13.832;2022-11-04T05:42:29;2.00;;;1.60;;
12469;SDS011;36499;46.484;13.832;2022-11-04T05:44:57;3.13;;;1.70;;
12469;SDS011;36499;46.484;13.832;2022-11-04T05:47:24;2.37;;;1.60;;
12469;SDS011;36499;46.484;13.832;2022-11-04T05:49:51;2.67;;;1.80;;
12469;SDS011;36499;46.484;13.832;2022-11-04T05:52:18;2.27;;;1.77;;
12469;SDS011;36499;46.484;13.832;2022-11-04T05:54:45;2.80;;;1.70;;
12469;SDS011;36499;46.484;13.832;2022-11-04T05:57:13;2.10;;;1.90;;
12469;SDS011;36499;46.484;13.832;2022-11-04T05:59:40;2.20;;;1.70;;
12469;SDS011;36499;46.484;13.832;2022-11-04T06:02:08;2.30;;;1.70;;
12469;SDS011;36499;46.484;13.832;2022-11-04T06:04:35;7.97;;;6.00;;
12469;SDS011;36499;46.484;13.832;2022-11-04T06:07:02;2.90;;;2.00;;
12469;SDS011;36499;46.484;13.832;2022-11-04T06:09:29;2.40;;;2.00;;
12469;SDS011;36499;46.484;13.832;2022-11-04T06:12:04;2.53;;;1.70;;
12469;SDS011;36499;46.484;13.832;2022-11-04T06:14:35;2.10;;;1.90;;
12469;SDS011;36499;46.484;13.832;2022-11-04T06:17:03;1.90;;;1.63;;
12469;SDS011;36499;46.484;13.832;2022-11-04T06:19:30;2.23;;;1.70;;
12469;SDS011;36499;46.484;13.832;2022-11-04T06:21:57;3.17;;;1.70;;
12469;SDS011;36499;46.484;13.832;2022-11-04T06:24:25;2.00;;;1.77;;
12469;SDS011;36499;46.484;13.832;2022-11-04T06:26:52;2.07;;;1.87;;
12469;SDS011;36499;46.484;13.832;2022-11-04T06:29:19;1.87;;;1.63;;
12469;SDS011;36499;46.484;13.832;2022-11-04T06:31:47;3.17;;;2.07;;
12469;SDS011;36499;46.484;13.832;2022-11-04T06:34:14;2.07;;;1.87;;
12469;SDS011;36499;46.484;13.832;2022-11-04T06:36:42;3.80;;;2.03;;
12469;SDS011;36499;46.484;13.832;2022-11-04T06:39:09;2.20;;;1.90;;
12469;SDS011;36499;46.484;13.832;2022-11-04T06:41:36;2.97;;;2.00;;
12469;SDS011;36499;46.484;13.832;2022-11-04T06:44:03;4.20;;;2.10;;
12469;SDS011;36499;46.484;13.832;2022-11-04T06:46:32;2.63;;;2.10;;
12469;SDS011;36499;46.484;13.832;2022-11-04T06:49:03;3.20;;;2.10;;
12469;SDS011;36499;46.484;13.832;2022-11-04T06:51:32;2.00;;;1.77;;
12469;SDS011;36499;46.484;13.832;2022-11-04T06:53:59;2.33;;;1.50;;
12469;SDS011;36499;46.484;13.832;2022-11-04T06:56:26;1.67;;;1.57;;
12469;SDS011;36499;46.484;13.832;2022-11-04T06:58:54;2.20;;;1.97;;
12469;SDS011;36499;46.484;13.832;2022-11-04T07:01:22;2.97;;;2.03;;
12469;SDS011;36499;46.484;13.832;2022-11-04T07:03:54;1.87;;;1.30;;
12469;SDS011;36499;46.484;13.832;2022-11-04T07:06:25;1.33;;;1.20;;
12469;SDS011;36499;46.484;13.832;2022-11-04T07:08:55;1.37;;;1.20;;
12469;SDS011;36499;46.484;13.832;2022-11-04T07:11:25;1.50;;;1.40;;
12469;SDS011;36499;46.484;13.832;2022-11-04T07:13:55;1.03;;;1.03;;
12469;SDS011;36499;46.484;13.832;2022-11-04T07:16:23;1.53;;;1.13;;
12469;SDS011;36499;46.484;13.832;2022-11-04T07:18:52;1.97;;;1.20;;
12469;SDS011;36499;46.484;13.832;2022-11-04T07:21:19;3.10;;;1.10;;
12469;SDS011;36499;46.484;13.832;2022-11-04T07:23:47;1.03;;;1.00;;
12469;SDS011;36499;46.484;13.832;2022-11-04T07:26:15;0.90;;;0.90;;
12469;SDS011;36499;46.484;13.832;2022-11-04T07:28:42;1.10;;;1.00;;
12469;SDS011;36499;46.484;13.832;2022-11-04T07:31:10;1.33;;;0.90;;
12469;SDS011;36499;46.484;13.832;2022-11-04T07:33:39;1.13;;;1.03;;
12469;SDS011;36499;46.484;13.832;2022-11-04T07:36:07;0.90;;;0.90;;
12469;SDS011;36499;46.484;13.832;2022-11-04T07:38:38;0.80;;;0.80;;
12469;SDS011;36499;46.484;13.832;2022-11-04T07:41:06;1.03;;;0.90;;
12469;SDS011;36499;46.484;13.832;2022-11-04T07:43:33;4.87;;;4.00;;
12469;SDS011;36499;46.484;13.832;2022-11-04T07:46:01;0.93;;;0.90;;
12469;SDS011;36499;46.484;13.832;2022-11-04T07:48:31;0.80;;;0.80;;
12469;SDS011;36499;46.484;13.832;2022-11-04T07:50:58;1.03;;;0.80;;
12469;SDS011;36499;46.484;13.832;2022-11-04T07:53:26;1.07;;;0.80;;
12469;SDS011;36499;46.484;13.832;2022-11-04T07:55:55;0.80;;;0.80;;
12469;SDS011;36499;46.484;13.832;2022-11-04T07:58:24;0.70;;;0.70;;
12469;SDS011;36499;46.484;13.832;2022-11-04T08:00:56;1.50;;;1.00;;
12469;SDS011;36499;46.484;13.832;2022-11-04T08:03:24;0.80;;;0.80;;
12469;SDS011;36499;46.484;13.832;2022-11-04T08:05:55;1.00;;;0.90;;
12469;SDS011;36499;46.484;13.832;2022-11-04T08:08:22;1.57;;;1.10;;
12469;SDS011;36499;46.484;13.832;2022-11-04T08:10:53;0.83;;;0.80;;
12469;SDS011;36499;46.484;13.832;2022-11-04T08:13:25;1.83;;;1.27;;
12469;SDS011;36499;46.484;13.832;2022-11-04T08:15:53;1.40;;;1.03;;
12469;SDS011;36499;46.484;13.832;2022-11-04T08:18:21;1.50;;;1.40;;
12469;SDS011;36499;46.484;13.832;2022-11-04T08:20:48;1.60;;;1.27;;
12469;SDS011;36499;46.484;13.832;2022-11-04T08:23:18;0.90;;;0.90;;
12469;SDS011;36499;46.484;13.832;2022-11-04T08:25:45;9.43;;;6.40;;
12469;SDS011;36499;46.484;13.832;2022-11-04T08:28:12;1.73;;;1.43;;
12469;SDS011;36499;46.484;13.832;2022-11-04T08:30:51;1.20;;;1.10;;
12469;SDS011;36499;46.484;13.832;2022-11-04T08:33:20;1.67;;;1.50;;
12469;SDS011;36499;46.484;13.832;2022-11-04T08:35:49;2.93;;;2.00;;
12469;SDS011;36499;46.484;13.832;2022-11-04T08:38:16;2.07;;;1.40;;
12469;SDS011;36499;46.484;13.832;2022-11-04T08:40:44;3.80;;;2.30;;
12469;SDS011;36499;46.484;13.832;2022-11-04T08:43:11;2.73;;;1.83;;
12469;SDS011;36499;46.484;13.832;2022-11-04T08:45:38;1.13;;;1.03;;
12469;SDS011;36499;46.484;13.832;2022-11-04T08:48:09;1.80;;;1.40;;
12469;SDS011;36499;46.484;13.832;2022-11-04T08:50:37;1.23;;;1.13;;
12469;SDS011;36499;46.484;13.832;2022-11-04T08:53:05;1.50;;;1.40;;
12469;SDS011;36499;46.484;13.832;2022-11-04T08:55:32;12.17;;;9.37;;
12469;SDS011;36499;46.484;13.832;2022-11-04T08:58:00;1.47;;;1.30;;
12469;SDS011;36499;46.484;13.832;2022-11-04T09:00:28;1.47;;;0.90;;
12469;SDS011;36499;46.484;13.832;2022-11-04T09:02:57;1.27;;;0.90;;
12469;SDS011;36499;46.484;13.832;2022-11-04T09:05:25;0.70;;;0.70;;
12469;SDS011;36499;46.484;13.832;2022-11-04T09:07:52;0.67;;;0.67;;
12469;SDS011;36499;46.484;13.832;2022-11-04T09:10:20;2.23;;;1.00;;
12469;SDS011;36499;46.484;13.832;2022-11-04T09:12:47;0.70;;;0.70;;
12469;SDS011;36499;46.484;13.832;2022-11-04T09:15:15;1.00;;;0.90;;
12469;SDS011;36499;46.484;13.832;2022-11-04T09:17:42;1.47;;;0.90;;
12469;SDS011;36499;46.484;13.832;2022-11-04T09:20:09;2.37;;;1.17;;
12469;SDS011;36499;46.484;13.832;2022-11-04T09:22:38;1.10;;;1.00;;
12469;SDS011;36499;46.484;13.832;2022-11-04T09:25:05;1.80;;;1.10;;
12469;SDS011;36499;46.484;13.832;2022-11-04T09:27:33;1.20;;;1.10;;
12469;SDS011;36499;46.484;13.832;2022-11-04T09:30:00;1.20;;;1.10;;
12469;SDS011;36499;46.484;13.832;2022-11-04T09:32:27;1.77;;;1.20;;
12469;SDS011;36499;46.484;13.832;2022-11-04T09:34:54;1.17;;;1.00;;
12469;SDS011;36499;46.484;13.832;2022-11-04T09:37:21;2.03;;;1.10;;
12469;SDS011;36499;46.484;13.832;2022-11-04T09:39:49;5.00;;;3.90;;
12469;SDS011;36499;46.484;13.832;2022-11-04T09:45:24;8.37;;;3.30;;
12469;SDS011;36499;46.484;13.832;2022-11-04T09:47:56;2.57;;;2.13;;
12469;SDS011;36499;46.484;13.832;2022-11-04T09:50:29;3.10;;;2.60;;
12469;SDS011;36499;46.484;13.832;2022-11-04T09:53:03;1.90;;;1.40;;
12469;SDS011;36499;46.484;13.832;2022-11-04T09:55:40;2.13;;;1.80;;
12469;SDS011;36499;46.484;13.832;2022-11-04T09:58:18;2.20;;;1.47;;
12469;SDS011;36499;46.484;13.832;2022-11-04T10:00:46;2.03;;;1.40;;
12469;SDS011;36499;46.484;13.832;2022-11-04T10:03:29;2.60;;;1.67;;
12469;SDS011;36499;46.484;13.832;2022-11-04T10:06:19;3.97;;;1.90;;
12469;SDS011;36499;46.484;13.832;2022-11-04T10:09:03;3.23;;;1.80;;
12469;SDS011;36499;46.484;13.832;2022-11-04T10:11:55;2.43;;;2.00;;
12469;SDS011;36499;46.484;13.832;2022-11-04T10:14:52;3.03;;;2.33;;
12469;SDS011;36499;46.484;13.832;2022-11-04T10:17:42;3.07;;;2.00;;
12469;SDS011;36499;46.484;13.832;2022-11-04T10:20:34;3.13;;;2.20;;
12469;SDS011;36499;46.484;13.832;2022-11-04T10:23:18;4.17;;;2.30;;
12469;SDS011;36499;46.484;13.832;2022-11-04T10:25:53;2.60;;;1.80;;
12469;SDS011;36499;46.484;13.832;2022-11-04T10:28:35;2.73;;;1.97;;
12469;SDS011;36499;46.484;13.832;2022-11-04T10:31:10;2.43;;;2.20;;
12469;SDS011;36499;46.484;13.832;2022-11-04T10:33:42;2.10;;;1.70;;
12469;SDS011;36499;46.484;13.832;2022-11-04T10:36:13;1.77;;;1.60;;
12469;SDS011;36499;46.484;13.832;2022-11-04T10:38:43;3.37;;;2.20;;
12469;SDS011;36499;46.484;13.832;2022-11-04T10:41:17;3.97;;;1.90;;
12469;SDS011;36499;46.484;13.832;2022-11-04T10:43:55;3.03;;;2.10;;
12469;SDS011;36499;46.484;13.832;2022-11-04T10:46:41;2.57;;;2.10;;
12469;SDS011;36499;46.484;13.832;2022-11-04T10:49:25;5.73;;;4.97;;
12469;SDS011;36499;46.484;13.832;2022-11-04T10:52:06;2.80;;;2.27;;
12469;SDS011;36499;46.484;13.832;2022-11-04T10:54:37;3.10;;;2.40;;
12469;SDS011;36499;46.484;13.832;2022-11-04T10:57:07;3.53;;;2.80;;
12469;SDS011;36499;46.484;13.832;2022-11-04T10:59:41;3.43;;;2.43;;
12469;SDS011;36499;46.484;13.832;2022-11-04T11:02:17;3.67;;;1.90;;
12469;SDS011;36499;46.484;13.832;2022-11-04T11:05:13;2.33;;;2.13;;
12469;SDS011;36499;46.484;13.832;2022-11-04T11:07:49;4.57;;;2.33;;
12469;SDS011;36499;46.484;13.832;2022-11-04T11:10:20;2.90;;;2.00;;
12469;SDS011;36499;46.484;13.832;2022-11-04T11:12:51;4.33;;;2.10;;
12469;SDS011;36499;46.484;13.832;2022-11-04T11:15:27;3.73;;;2.40;;
12469;SDS011;36499;46.484;13.832;2022-11-04T11:18:10;2.83;;;2.20;;
12469;SDS011;36499;46.484;13.832;2022-11-04T11:20:41;2.27;;;1.80;;
12469;SDS011;36499;46.484;13.832;2022-11-04T11:23:33;2.60;;;2.00;;
12469;SDS011;36499;46.484;13.832;2022-11-04T11:26:05;2.37;;;2.00;;
12469;SDS011;36499;46.484;13.832;2022-11-04T11:28:37;0.70;;;0.70;;
12469;SDS011;36499;46.484;13.832;2022-11-04T11:31:09;0.70;;;0.70;;
12469;SDS011;36499;46.484;13.832;2022-11-04T11:33:48;3.23;;;0.67;;
12469;SDS011;36499;46.484;13.832;2022-11-04T11:36:21;0.67;;;0.63;;
12469;SDS011;36499;46.484;13.832;2022-11-04T11:38:59;0.50;;;0.50;;
12469;SDS011;36499;46.484;13.832;2022-11-04T11:41:32;0.27;;;0.27;;
12469;SDS011;36499;46.484;13.832;2022-11-04T11:44:21;0.40;;;0.40;;
12469;SDS011;36499;46.484;13.832;2022-11-04T11:46:57;3.23;;;0.47;;
12469;SDS011;36499;46.484;13.832;2022-11-04T11:49:28;0.70;;;0.70;;
12469;SDS011;36499;46.484;13.832;2022-11-04T11:52:15;0.73;;;0.73;;
12469;SDS011;36499;46.484;13.832;2022-11-04T11:55:00;1.13;;;0.97;;
12469;SDS011;36499;46.484;13.832;2022-11-04T11:57:34;0.63;;;0.63;;
12469;SDS011;36499;46.484;13.832;2022-11-04T12:00:14;0.80;;;0.80;;
12469;SDS011;36499;46.484;13.832;2022-11-04T12:02:49;1.33;;;0.60;;
12469;SDS011;36499;46.484;13.832;2022-11-04T12:05:26;0.40;;;0.40;;
12469;SDS011;36499;46.484;13.832;2022-11-04T12:08:03;0.70;;;0.70;;
12469;SDS011;36499;46.484;13.832;2022-11-04T12:10:57;0.40;;;0.40;;
12469;SDS011;36499;46.484;13.832;2022-11-04T12:13:34;0.30;;;0.30;;
12469;SDS011;36499;46.484;13.832;2022-11-04T12:16:13;0.50;;;0.50;;
12469;SDS011;36499;46.484;13.832;2022-11-04T12:19:16;0.60;;;0.60;;
12469;SDS011;36499;46.484;13.832;2022-11-04T12:22:06;0.80;;;0.70;;
12469;SDS011;36499;46.484;13.832;2022-11-04T12:24:51;2.53;;;0.50;;
12469;SDS011;36499;46.484;13.832;2022-11-04T12:27:33;0.63;;;0.63;;
12469;SDS011;36499;46.484;13.832;2022-11-04T12:30:12;0.70;;;0.70;;
12469;SDS011;36499;46.484;13.832;2022-11-04T12:32:47;0.73;;;0.60;;
12469;SDS011;36499;46.484;13.832;2022-11-04T12:35:34;0.83;;;0.50;;
12469;SDS011;36499;46.484;13.832;2022-11-04T12:38:23;0.40;;;0.40;;
12469;SDS011;36499;46.484;13.832;2022-11-04T12:41:10;0.50;;;0.50;;
12469;SDS011;36499;46.484;13.832;2022-11-04T12:43:51;0.57;;;0.57;;
12469;SDS011;36499;46.484;13.832;2022-11-04T12:46:31;3.67;;;2.00;;
12469;SDS011;36499;46.484;13.832;2022-11-04T12:49:11;2.57;;;1.87;;
12469;SDS011;36499;46.484;13.832;2022-11-04T12:52:25;0.40;;;0.40;;
12469;SDS011;36499;46.484;13.832;2022-11-04T12:55:21;0.30;;;0.30;;
12469;SDS011;36499;46.484;13.832;2022-11-04T12:58:02;0.30;;;0.30;;
12469;SDS011;36499;46.484;13.832;2022-11-04T13:00:44;0.40;;;0.40;;
12469;SDS011;36499;46.484;13.832;2022-11-04T13:03:20;3.67;;;0.50;;
12469;SDS011;36499;46.484;13.832;2022-11-04T13:05:56;1.50;;;0.40;;
12469;SDS011;36499;46.484;13.832;2022-11-04T13:08:33;0.33;;;0.33;;
12469;SDS011;36499;46.484;13.832;2022-11-04T13:11:09;0.30;;;0.30;;
12469;SDS011;36499;46.484;13.832;2022-11-04T13:13:51;0.30;;;0.30;;
12469;SDS011;36499;46.484;13.832;2022-11-04T13:16:27;0.30;;;0.30;;
12469;SDS011;36499;46.484;13.832;2022-11-04T13:18:56;1.80;;;0.83;;
12469;SDS011;36499;46.484;13.832;2022-11-04T13:21:26;0.47;;;0.47;;
12469;SDS011;36499;46.484;13.832;2022-11-04T13:24:02;2.47;;;1.20;;
12469;SDS011;36499;46.484;13.832;2022-11-04T13:26:40;2.03;;;1.30;;
12469;SDS011;36499;46.484;13.832;2022-11-04T13:29:09;1.77;;;1.37;;
12469;SDS011;36499;46.484;13.832;2022-11-04T13:31:46;1.50;;;0.70;;
12469;SDS011;36499;46.484;13.832;2022-11-04T13:34:26;1.87;;;1.00;;
12469;SDS011;36499;46.484;13.832;2022-11-04T13:37:06;0.97;;;0.60;;
12469;SDS011;36499;46.484;13.832;2022-11-04T13:39:46;0.60;;;0.60;;
12469;SDS011;36499;46.484;13.832;2022-11-04T13:42:45;0.40;;;0.40;;
12469;SDS011;36499;46.484;13.832;2022-11-04T13:45:51;0.50;;;0.50;;
12469;SDS011;36499;46.484;13.832;2022-11-04T13:48:21;0.30;;;0.30;;
12469;SDS011;36499;46.484;13.832;2022-11-04T13:50:56;0.40;;;0.40;;
12469;SDS011;36499;46.484;13.832;2022-11-04T13:53:41;0.43;;;0.40;;
12469;SDS011;36499;46.484;13.832;2022-11-04T13:56:29;0.40;;;0.40;;
12469;SDS011;36499;46.484;13.832;2022-11-04T13:59:00;0.40;;;0.40;;
12469;SDS011;36499;46.484;13.832;2022-11-04T14:01:43;0.50;;;0.50;;
12469;SDS011;36499;46.484;13.832;2022-11-04T14:04:18;2.53;;;0.50;;
12469;SDS011;36499;46.484;13.832;2022-11-04T14:06:55;0.50;;;0.43;;
12469;SDS011;36499;46.484;13.832;2022-11-04T14:09:38;0.53;;;0.53;;
12469;SDS011;36499;46.484;13.832;2022-11-04T14:12:25;0.50;;;0.50;;
12469;SDS011;36499;46.484;13.832;2022-11-04T14:15:02;0.43;;;0.43;;
12469;SDS011;36499;46.484;13.832;2022-11-04T14:17:58;0.90;;;0.70;;
12469;SDS011;36499;46.484;13.832;2022-11-04T14:20:28;0.50;;;0.50;;
12469;SDS011;36499;46.484;13.832;2022-11-04T14:22:58;3.17;;;2.00;;
12469;SDS011;36499;46.484;13.832;2022-11-04T14:25:30;0.90;;;0.60;;
12469;SDS011;36499;46.484;13.832;2022-11-04T14:28:15;0.70;;;0.70;;
12469;SDS011;36499;46.484;13.832;2022-11-04T14:30:51;3.27;;;0.77;;
12469;SDS011;36499;46.484;13.832;2022-11-04T14:33:22;0.57;;;0.57;;
12469;SDS011;36499;46.484;13.832;2022-11-04T14:36:26;0.70;;;0.70;;
12469;SDS011;36499;46.484;13.832;2022-11-04T14:39:02;1.97;;;0.67;;
12469;SDS011;36499;46.484;13.832;2022-11-04T14:41:55;0.70;;;0.70;;
12469;SDS011;36499;46.484;13.832;2022-11-04T14:44:29;0.37;;;0.37;;
12469;SDS011;36499;46.484;13.832;2022-11-04T14:47:01;1.03;;;0.60;;
12469;SDS011;36499;46.484;13.832;2022-11-04T14:49:45;0.53;;;0.53;;
12469;SDS011;36499;46.484;13.832;2022-11-04T14:52:19;1.20;;;0.97;;
12469;SDS011;36499;46.484;13.832;2022-11-04T14:54:52;0.60;;;0.60;;
12469;SDS011;36499;46.484;13.832;2022-11-04T14:57:28;1.10;;;1.00;;
12469;SDS011;36499;46.484;13.832;2022-11-04T15:02:57;1.60;;;1.20;;
12469;SDS011;36499;46.484;13.832;2022-11-04T15:05:39;0.53;;;0.53;;
12469;SDS011;36499;46.484;13.832;2022-11-04T15:08:27;1.50;;;0.70;;
12469;SDS011;36499;46.484;13.832;2022-11-04T15:11:06;0.40;;;0.40;;
12469;SDS011;36499;46.484;13.832;2022-11-04T15:13:42;0.63;;;0.60;;
12469;SDS011;36499;46.484;13.832;2022-11-04T15:16:14;0.80;;;0.50;;
12469;SDS011;36499;46.484;13.832;2022-11-04T15:18:45;1.77;;;0.60;;
12469;SDS011;36499;46.484;13.832;2022-11-04T15:21:13;0.40;;;0.40;;